Time;durP1;ratioP1;P1;durP2;ratioP2;P2;SDS_P1;SDS_P2;PMS_P1;PMS_P2;Temp;Humidity;BMP_temperature;BMP_pressure;BME280_temperature;BME280_humidity;BME280_pressure;Samples;Min_cycle;Max_cycle;Signal;HPM_P1;HPM_P2
2022/06/26 00:00:41;;;;;;;5.00;4.80;;;;;;;-143.83;100.00;62900.06;5033454;28;20500;-62
2022/06/26 00:03:06;;;;;;;5.00;4.80;;;;;;;-143.83;100.00;62900.06;5035212;28;20108;-61
2022/06/26 00:05:32;;;;;;;5.20;5.00;;;;;;;-143.83;100.00;62900.06;5034215;28;20034;-59
2022/06/26 00:07:57;;;;;;;5.00;4.80;;;;;;;-143.83;100.00;62900.06;5033940;28;20030;-60
2022/06/26 00:10:23;;;;;;;5.00;4.80;;;;;;;-143.83;100.00;62900.06;5032991;28;20032;-59
2022/06/26 00:12:48;;;;;;;4.97;4.78;;;;;;;-143.83;100.00;62900.06;5029196;28;20042;-59
2022/06/26 00:15:15;;;;;;;5.20;5.00;;;;;;;-143.83;100.00;62900.06;5027847;28;20029;-61
2022/06/26 00:17:40;;;;;;;5.13;4.93;;;;;;;-143.83;100.00;62900.06;5027791;28;20390;-60
2022/06/26 00:20:07;;;;;;;5.20;5.00;;;;;;;-143.83;100.00;62900.06;5039844;28;20033;-60
2022/06/26 00:22:33;;;;;;;5.10;4.90;;;;;;;-143.83;100.00;62900.06;5021641;28;20026;-60
2022/06/26 00:24:59;;;;;;;5.10;4.90;;;;;;;-143.83;100.00;62900.06;5034181;28;20044;-59
2022/06/26 00:27:24;;;;;;;5.00;4.80;;;;;;;-143.83;100.00;62900.06;5030704;28;20026;-59
2022/06/26 00:29:50;;;;;;;5.00;4.80;;;;;;;-143.83;100.00;62900.06;5034177;28;20029;-59
2022/06/26 00:32:15;;;;;;;5.03;4.82;;;;;;;-143.83;100.00;62900.06;5032567;28;20461;-59
2022/06/26 00:34:41;;;;;;;4.90;4.70;;;;;;;-143.83;100.00;62900.06;5033807;28;20036;-58
2022/06/26 00:37:06;;;;;;;5.00;4.80;;;;;;;-143.83;100.00;62900.06;5033938;28;20018;-59
2022/06/26 00:39:32;;;;;;;5.10;4.90;;;;;;;-143.83;100.00;62900.06;5034126;28;20033;-60
2022/06/26 00:41:57;;;;;;;4.88;4.68;;;;;;;-143.83;100.00;62900.06;5033530;28;20413;-59
2022/06/26 00:44:24;;;;;;;4.93;4.72;;;;;;;-143.83;100.00;62900.06;5032862;28;20094;-59
2022/06/26 00:46:52;;;;;;;4.97;4.78;;;;;;;-143.83;100.00;62900.06;5021807;28;20026;-60
2022/06/26 00:49:18;;;;;;;5.25;5.05;;;;;;;-143.83;100.00;62900.06;5031564;28;20084;-60
2022/06/26 00:51:47;;;;;;;5.00;4.80;;;;;;;-143.83;100.00;62900.06;5033704;28;20029;-59
2022/06/26 00:54:13;;;;;;;5.20;5.00;;;;;;;-143.83;100.00;62900.06;5033850;28;20017;-59
2022/06/26 00:56:39;;;;;;;5.00;4.80;;;;;;;-143.83;100.00;62900.06;5032981;28;20101;-59
2022/06/26 00:59:05;;;;;;;4.90;4.70;;;;;;;-143.83;100.00;62900.06;5031881;28;20113;-60
2022/06/26 01:01:33;;;;;;;5.00;4.80;;;;;;;-143.83;100.00;62900.06;5020265;28;20033;-59
2022/06/26 01:03:59;;;;;;;5.20;5.00;;;;;;;-143.83;100.00;62900.06;5032742;28;20366;-61
2022/06/26 01:06:24;;;;;;;5.00;4.80;;;;;;;-143.83;100.00;62900.06;5033243;28;20025;-60
2022/06/26 01:08:50;;;;;;;5.00;4.80;;;;;;;-143.83;100.00;62900.06;5033258;28;20108;-60
2022/06/26 01:11:18;;;;;;;4.90;4.70;;;;;;;-143.83;100.00;62900.06;5035021;28;20021;-59
2022/06/26 01:13:48;;;;;;;4.85;4.65;;;;;;;-143.83;100.00;62900.06;5031921;28;20038;-60
2022/06/26 01:16:16;;;;;;;4.90;4.70;;;;;;;-143.83;100.00;62900.06;5030535;28;20025;-60
2022/06/26 01:18:43;;;;;;;4.95;4.75;;;;;;;-143.83;100.00;62900.06;5031317;28;20025;-60
2022/06/26 01:21:09;;;;;;;4.82;4.63;;;;;;;-143.83;100.00;62900.06;5031482;28;20061;-60
2022/06/26 01:23:35;;;;;;;4.90;4.70;;;;;;;-143.83;100.00;62900.06;5032784;28;20067;-59
2022/06/26 01:26:00;;;;;;;5.00;4.80;;;;;;;-143.83;100.00;62900.06;5032930;28;20028;-60
2022/06/26 01:28:26;;;;;;;5.00;4.80;;;;;;;-143.83;100.00;62900.06;5039567;28;20104;-60
2022/06/26 01:30:51;;;;;;;5.07;4.88;;;;;;;-143.83;100.00;62900.06;5032731;28;20124;-60
2022/06/26 01:33:17;;;;;;;4.95;4.75;;;;;;;-143.83;100.00;62900.06;5032800;28;20094;-60
2022/06/26 01:35:43;;;;;;;4.90;4.70;;;;;;;-143.83;100.00;62900.06;5030374;28;20032;-60
2022/06/26 01:38:17;;;;;;;5.10;4.90;;;;;;;-143.83;100.00;62900.06;5032779;28;20056;-60
2022/06/26 01:40:44;;;;;;;5.00;4.80;;;;;;;-143.83;100.00;62900.06;5032858;28;20025;-60
2022/06/26 01:43:11;;;;;;;4.93;4.72;;;;;;;-143.83;100.00;62900.06;5032201;28;20453;-59
2022/06/26 01:45:47;;;;;;;4.80;4.60;;;;;;;-143.83;100.00;62900.06;5032980;28;20789;-60
2022/06/26 01:48:14;;;;;;;4.90;4.70;;;;;;;-143.83;100.00;62900.06;5024758;28;20465;-59
2022/06/26 01:50:40;;;;;;;4.90;4.70;;;;;;;-143.83;100.00;62900.06;5025143;28;20129;-61
2022/06/26 01:53:06;;;;;;;4.80;4.60;;;;;;;-143.83;100.00;62900.06;5028858;28;20029;-60
2022/06/26 01:55:32;;;;;;;4.82;4.63;;;;;;;-143.83;100.00;62900.06;5032731;28;20029;-59
2022/06/26 01:58:02;;;;;;;4.80;4.60;;;;;;;-143.83;100.00;62900.06;5032256;28;20061;-60
2022/06/26 02:00:29;;;;;;;4.82;4.63;;;;;;;-143.83;100.00;62900.06;5032374;28;20025;-60
2022/06/26 02:02:55;;;;;;;4.70;4.50;;;;;;;-143.83;100.00;62900.06;5032408;28;20045;-61
2022/06/26 02:05:21;;;;;;;4.80;4.60;;;;;;;-143.83;100.00;62900.06;5032272;28;20445;-61
2022/06/26 02:07:46;;;;;;;5.05;4.85;;;;;;;-143.83;100.00;62900.06;5031057;28;20312;-60
2022/06/26 02:15:40;;;;;;;4.90;4.70;;;;;;;-143.83;100.00;62900.06;5029841;28;20098;-60
2022/06/26 02:18:05;;;;;;;4.88;4.68;;;;;;;-143.83;100.00;62900.06;5039223;28;20028;-60
2022/06/26 02:20:31;;;;;;;4.80;4.60;;;;;;;-143.83;100.00;62900.06;5029125;28;20025;-60
2022/06/26 02:22:56;;;;;;;4.80;4.60;;;;;;;-143.83;100.00;62900.06;5032009;28;20044;-60
2022/06/26 02:25:22;;;;;;;4.90;4.70;;;;;;;-143.83;100.00;62900.06;5030847;28;20029;-60
2022/06/26 02:27:48;;;;;;;4.88;4.68;;;;;;;-143.83;100.00;62900.06;5030967;28;20040;-59
2022/06/26 02:30:14;;;;;;;4.78;4.57;;;;;;;-143.83;100.00;62900.06;5031822;28;20075;-60
2022/06/26 02:32:40;;;;;;;4.80;4.60;;;;;;;-143.83;100.00;62900.06;5021031;28;20039;-59
2022/06/26 02:35:06;;;;;;;4.82;4.63;;;;;;;-143.83;100.00;62900.06;5033100;28;20038;-59
2022/06/26 02:37:32;;;;;;;4.90;4.70;;;;;;;-143.83;100.00;62900.06;5031564;28;20022;-59
2022/06/26 02:39:58;;;;;;;4.70;4.50;;;;;;;-143.83;100.00;62900.06;5031685;28;20457;-60
2022/06/26 02:42:23;;;;;;;4.72;4.53;;;;;;;-143.83;100.00;62900.06;5030600;28;20025;-60
2022/06/26 02:44:49;;;;;;;4.80;4.60;;;;;;;-143.83;100.00;62900.06;5030487;28;20037;-60
2022/06/26 02:47:14;;;;;;;4.85;4.65;;;;;;;-143.83;100.00;62900.06;5030585;28;20025;-60
2022/06/26 02:49:40;;;;;;;5.00;4.80;;;;;;;-143.83;100.00;62900.06;5031516;28;20045;-60
2022/06/26 02:52:05;;;;;;;5.10;4.90;;;;;;;-143.83;100.00;62900.06;5036947;28;20112;-59
2022/06/26 02:54:31;;;;;;;5.15;4.95;;;;;;;-143.83;100.00;62900.06;5031684;28;20477;-60
2022/06/26 02:56:57;;;;;;;5.28;5.07;;;;;;;-143.83;100.00;62900.06;5031734;28;20493;-60
2022/06/26 02:59:23;;;;;;;5.22;5.03;;;;;;;-143.83;100.00;62900.06;5030880;28;20125;-60
2022/06/26 03:01:48;;;;;;;5.40;5.20;;;;;;;-143.83;100.00;62900.06;5030683;28;20463;-60
2022/06/26 03:04:14;;;;;;;5.43;5.22;;;;;;;-143.83;100.00;62900.06;5031323;28;20029;-60
2022/06/26 03:06:39;;;;;;;5.40;5.20;;;;;;;-143.83;100.00;62900.06;5030433;28;20022;-60
2022/06/26 03:09:05;;;;;;;5.40;5.20;;;;;;;-143.83;100.00;62900.06;5038881;28;20427;-60
2022/06/26 03:11:30;;;;;;;5.55;5.35;;;;;;;-143.83;100.00;62900.06;5020141;28;20057;-60
2022/06/26 03:13:56;;;;;;;5.63;5.43;;;;;;;-143.83;100.00;62900.06;5026698;28;20029;-59
2022/06/26 03:16:22;;;;;;;5.80;5.60;;;;;;;-143.83;100.00;62900.06;5021285;28;20053;-59
2022/06/26 03:18:48;;;;;;;5.70;5.50;;;;;;;-143.83;100.00;62900.06;5025153;28;20404;-60
2022/06/26 03:21:13;;;;;;;5.78;5.57;;;;;;;-143.83;100.00;62900.06;5032153;28;20500;-59
2022/06/26 03:26:23;;;;;;;;;;;;;;;-143.83;100.00;62900.06;5036167;28;20140;-60
2022/06/26 03:28:48;;;;;;;6.00;5.80;;;;;;;-143.83;100.00;62900.06;5034920;28;20407;-60
2022/06/26 03:31:14;;;;;;;5.75;5.55;;;;;;;-143.83;100.00;62900.06;5034138;28;20034;-60
2022/06/26 03:33:40;;;;;;;5.70;5.50;;;;;;;-143.83;100.00;62900.06;5033875;28;20603;-60
2022/06/26 03:36:08;;;;;;;5.90;5.70;;;;;;;-143.83;100.00;62900.06;5035274;28;20049;-60
2022/06/26 03:38:34;;;;;;;5.63;5.43;;;;;;;-143.83;100.00;62900.06;5034064;28;20037;-59
2022/06/26 03:41:00;;;;;;;5.82;5.63;;;;;;;-143.83;100.00;62900.06;5033710;28;20032;-60
2022/06/26 03:43:25;;;;;;;5.80;5.60;;;;;;;-143.83;100.00;62900.06;5035054;28;20025;-60
2022/06/26 03:45:51;;;;;;;6.00;5.80;;;;;;;-143.83;100.00;62900.06;5029337;28;20022;-61
2022/06/26 03:48:17;;;;;;;5.90;5.70;;;;;;;-143.83;100.00;62900.06;5018274;28;20401;-60
2022/06/26 03:50:42;;;;;;;5.75;5.55;;;;;;;-143.83;100.00;62900.06;5033430;28;20057;-60
2022/06/26 03:53:08;;;;;;;5.88;5.68;;;;;;;-143.83;100.00;62900.06;5034536;28;20053;-60
2022/06/26 03:55:34;;;;;;;5.90;5.70;;;;;;;-143.83;100.00;62900.06;5033755;28;20026;-60
2022/06/26 03:58:00;;;;;;;5.72;5.53;;;;;;;-143.83;100.00;62900.06;5033604;28;20032;-59
2022/06/26 04:00:26;;;;;;;6.00;5.80;;;;;;;-143.83;100.00;62900.06;5035173;28;20017;-59
2022/06/26 04:02:51;;;;;;;5.85;5.65;;;;;;;-143.83;100.00;62900.06;5031148;28;20378;-59
2022/06/26 04:05:17;;;;;;;5.80;5.60;;;;;;;-143.83;100.00;62900.06;5034355;28;20134;-60
2022/06/26 04:07:42;;;;;;;5.97;5.78;;;;;;;-143.83;100.00;62900.06;5033645;28;20041;-60
2022/06/26 04:10:08;;;;;;;6.05;5.85;;;;;;;-143.83;100.00;62900.06;5031720;28;20084;-60
2022/06/26 04:12:33;;;;;;;5.90;5.70;;;;;;;-143.83;100.00;62900.06;5019048;28;20105;-60
2022/06/26 04:14:59;;;;;;;6.10;5.90;;;;;;;-143.83;100.00;62900.06;5030531;28;20025;-60
2022/06/26 04:17:24;;;;;;;5.90;5.70;;;;;;;-143.83;100.00;62900.06;5035349;28;20389;-60
2022/06/26 04:19:50;;;;;;;5.88;5.68;;;;;;;-143.83;100.00;62900.06;5033347;28;20064;-60
2022/06/26 04:22:16;;;;;;;5.90;5.70;;;;;;;-143.83;100.00;62900.06;5033199;28;20116;-59
2022/06/26 04:24:41;;;;;;;6.13;5.93;;;;;;;-143.83;100.00;62900.06;5023947;28;20402;-60
2022/06/26 04:27:07;;;;;;;6.07;5.88;;;;;;;-143.83;100.00;62900.06;5030881;28;20036;-60
2022/06/26 04:29:32;;;;;;;6.00;5.80;;;;;;;-143.83;100.00;62900.06;5033849;28;20037;-59
2022/06/26 04:31:58;;;;;;;6.40;6.10;;;;;;;-143.83;100.00;62900.06;5033682;28;20028;-60
2022/06/26 04:34:23;;;;;;;6.13;5.93;;;;;;;-143.83;100.00;62900.06;5034578;28;20408;-59
2022/06/26 04:36:49;;;;;;;6.18;5.97;;;;;;;-143.83;100.00;62900.06;5033899;28;20021;-59
2022/06/26 04:39:15;;;;;;;6.15;5.95;;;;;;;-143.83;100.00;62900.06;5020405;28;20052;-60
2022/06/26 04:41:41;;;;;;;6.18;5.97;;;;;;;-143.83;100.00;62900.06;5031706;28;20035;-60
2022/06/26 04:44:11;;;;;;;6.10;5.90;;;;;;;-143.83;100.00;62900.06;5033738;28;20029;-60
2022/06/26 04:46:40;;;;;;;6.10;5.90;;;;;;;-143.83;100.00;62900.06;5032533;28;20021;-61
2022/06/26 04:49:06;;;;;;;6.15;5.93;;;;;;;-143.83;100.00;62900.06;5032978;28;20029;-60
2022/06/26 04:51:34;;;;;;;6.03;5.82;;;;;;;-143.83;100.00;62900.06;5034177;28;20030;-59
2022/06/26 04:54:00;;;;;;;6.38;6.07;;;;;;;-143.83;100.00;62900.06;5022441;28;20026;-60
2022/06/26 04:56:26;;;;;;;6.10;5.90;;;;;;;-143.83;100.00;62900.06;5030215;28;20028;-59
2022/06/26 04:58:53;;;;;;;6.00;5.80;;;;;;;-143.83;100.00;62900.06;5032696;28;20066;-61
2022/06/26 05:01:19;;;;;;;6.05;5.85;;;;;;;-143.83;100.00;62900.06;5032623;28;20034;-60
2022/06/26 05:03:44;;;;;;;6.40;6.10;;;;;;;-143.83;100.00;62900.06;5029637;28;21917;-60
2022/06/26 05:06:10;;;;;;;6.15;5.95;;;;;;;-143.83;100.00;62900.06;5034138;28;20544;-60
2022/06/26 05:08:35;;;;;;;6.05;5.85;;;;;;;-143.83;100.00;62900.06;5030599;28;20168;-60
2022/06/26 05:11:01;;;;;;;5.93;5.72;;;;;;;-143.83;100.00;62900.06;5023281;28;20029;-61
2022/06/26 05:13:27;;;;;;;5.88;5.68;;;;;;;-143.83;100.00;62900.06;5032142;28;20033;-59
2022/06/26 05:15:52;;;;;;;5.72;5.53;;;;;;;-143.83;100.00;62900.06;5032369;28;20021;-60
2022/06/26 05:18:18;;;;;;;5.82;5.63;;;;;;;-143.83;100.00;62900.06;5030336;28;20488;-60
2022/06/26 05:20:43;;;;;;;5.80;5.60;;;;;;;-143.83;100.00;62900.06;5034664;28;20025;-60
2022/06/26 05:23:11;;;;;;;5.85;5.65;;;;;;;-143.83;100.00;62900.06;5030271;28;20021;-61
2022/06/26 05:25:37;;;;;;;6.07;5.88;;;;;;;-143.83;100.00;62900.06;5039359;28;20076;-60
2022/06/26 05:28:03;;;;;;;5.88;5.68;;;;;;;-143.83;100.00;62900.06;5041159;28;20401;-61
2022/06/26 05:30:28;;;;;;;5.80;5.60;;;;;;;-143.83;100.00;62900.06;5026937;28;20104;-59
2022/06/26 05:32:54;;;;;;;5.60;5.40;;;;;;;-143.83;100.00;62900.06;5026940;28;20021;-60
2022/06/26 05:35:19;;;;;;;5.50;5.30;;;;;;;-143.83;100.00;62900.06;5031556;28;20083;-60
2022/06/26 05:37:45;;;;;;;5.70;5.50;;;;;;;-143.83;100.00;62900.06;5022473;28;20022;-61
2022/06/26 05:40:11;;;;;;;5.88;5.68;;;;;;;-143.83;100.00;62900.06;5030314;28;20021;-60
2022/06/26 05:42:36;;;;;;;6.10;5.90;;;;;;;-143.83;100.00;62900.06;5024845;28;20033;-60
2022/06/26 05:45:02;;;;;;;6.43;6.13;;;;;;;-143.83;100.00;62900.06;5033044;28;20061;-60
2022/06/26 05:47:28;;;;;;;5.95;5.75;;;;;;;-143.83;100.00;62900.06;5029199;28;20067;-60
2022/06/26 05:49:53;;;;;;;5.72;5.53;;;;;;;-143.83;100.00;62900.06;5033303;28;20055;-60
2022/06/26 05:52:19;;;;;;;5.50;5.30;;;;;;;-143.83;100.00;62900.06;5036491;28;20473;-60
2022/06/26 05:54:44;;;;;;;5.40;5.20;;;;;;;-143.83;100.00;62900.06;5042736;28;20417;-60
2022/06/26 05:57:10;;;;;;;5.50;5.30;;;;;;;-143.83;100.00;62900.06;5020957;28;20044;-62
2022/06/26 05:59:35;;;;;;;5.60;5.40;;;;;;;-143.83;100.00;62900.06;5024670;28;20038;-60
2022/06/26 06:02:00;;;;;;;5.60;5.40;;;;;;;-143.83;100.00;62900.06;5030692;28;20121;-60
2022/06/26 06:04:26;;;;;;;5.90;5.70;;;;;;;-143.83;100.00;62900.06;5031887;28;20713;-60
2022/06/26 06:06:52;;;;;;;5.68;5.47;;;;;;;-143.83;100.00;62900.06;5023926;28;20068;-61
2022/06/26 06:09:17;;;;;;;5.95;5.75;;;;;;;-143.83;100.00;62900.06;5029963;28;20029;-60
2022/06/26 06:11:43;;;;;;;6.07;5.88;;;;;;;-143.83;100.00;62900.06;5032085;28;20031;-61
2022/06/26 06:14:08;;;;;;;5.95;5.75;;;;;;;-143.83;100.00;62900.06;5031657;28;20083;-59
2022/06/26 06:16:34;;;;;;;5.93;5.72;;;;;;;-143.83;100.00;62900.06;5033221;28;20026;-61
2022/06/26 06:18:59;;;;;;;5.80;5.60;;;;;;;-143.83;100.00;62900.06;5037833;28;20456;-61
2022/06/26 06:21:25;;;;;;;5.80;5.60;;;;;;;-143.83;100.00;62900.06;5040756;28;20120;-60
2022/06/26 06:23:50;;;;;;;5.78;5.57;;;;;;;-143.83;100.00;62900.06;5032857;28;20032;-61
2022/06/26 06:26:16;;;;;;;5.63;5.43;;;;;;;-143.83;100.00;62900.06;5023753;28;20033;-61
2022/06/26 06:28:41;;;;;;;5.80;5.60;;;;;;;-143.83;100.00;62900.06;5037200;28;20043;-61
2022/06/26 06:31:07;;;;;;;5.80;5.60;;;;;;;-143.83;100.00;62900.06;5027399;28;20385;-61
2022/06/26 06:33:32;;;;;;;5.80;5.60;;;;;;;-143.83;100.00;62900.06;5022896;28;20037;-61
2022/06/26 06:35:58;;;;;;;6.10;5.90;;;;;;;-143.83;100.00;62900.06;5036899;28;20064;-62
2022/06/26 06:38:25;;;;;;;5.85;5.65;;;;;;;-143.83;100.00;62900.06;5031538;28;20072;-62
2022/06/26 06:40:51;;;;;;;5.82;5.63;;;;;;;-143.83;100.00;62900.06;5031273;28;20033;-61
2022/06/26 06:43:17;;;;;;;5.97;5.78;;;;;;;-143.83;100.00;62900.06;5028245;28;20049;-61
2022/06/26 06:45:42;;;;;;;5.88;5.68;;;;;;;-143.83;100.00;62900.06;5039654;28;20568;-61
2022/06/26 06:48:08;;;;;;;6.00;5.80;;;;;;;-143.83;100.00;62900.06;5032621;28;20525;-61
2022/06/26 06:50:35;;;;;;;6.10;5.90;;;;;;;-143.83;100.00;62900.06;5028523;28;20096;-61
2022/06/26 06:53:00;;;;;;;6.25;5.95;;;;;;;-143.83;100.00;62900.06;5040003;28;20424;-61
2022/06/26 06:55:26;;;;;;;6.10;5.90;;;;;;;-143.83;100.00;62900.06;5027086;28;20066;-62
2022/06/26 06:57:52;;;;;;;6.20;6.00;;;;;;;-143.83;100.00;62900.06;5037862;28;20040;-61
2022/06/26 07:00:17;;;;;;;6.30;6.00;;;;;;;-143.83;100.00;62900.06;5039772;28;20512;-61
2022/06/26 07:02:43;;;;;;;6.40;6.10;;;;;;;-143.83;100.00;62900.06;5022915;28;20075;-61
2022/06/26 07:05:09;;;;;;;6.20;6.00;;;;;;;-143.83;100.00;62900.06;5035678;28;20041;-60
2022/06/26 07:07:36;;;;;;;6.10;5.90;;;;;;;-143.83;100.00;62900.06;5034936;28;20442;-61
2022/06/26 07:10:02;;;;;;;6.35;6.10;;;;;;;-143.83;100.00;62900.06;5035409;28;20079;-61
2022/06/26 07:12:27;;;;;;;6.50;6.20;;;;;;;-143.83;100.00;62900.06;5041599;28;20048;-61
2022/06/26 07:14:53;;;;;;;6.43;6.13;;;;;;;-143.83;100.00;62900.06;5039664;28;20476;-61
2022/06/26 07:17:21;;;;;;;6.40;6.10;;;;;;;-143.83;100.00;62900.06;5033437;28;20029;-60
2022/06/26 07:19:46;;;;;;;6.47;6.18;;;;;;;-143.83;100.00;62900.06;5032967;28;20388;-59
2022/06/26 07:22:12;;;;;;;6.22;6.00;;;;;;;-143.83;100.00;62900.06;5033332;28;20029;-59
2022/06/26 07:24:39;;;;;;;6.18;5.97;;;;;;;-143.83;100.00;62900.06;5026524;28;20029;-60
2022/06/26 07:27:05;;;;;;;6.07;5.88;;;;;;;-143.83;100.00;62900.06;5032273;28;20029;-61
2022/06/26 07:29:31;;;;;;;5.90;5.70;;;;;;;-143.83;100.00;62900.06;5027447;28;20029;-60
2022/06/26 07:31:57;;;;;;;5.78;5.57;;;;;;;-143.83;100.00;62900.06;5032630;28;20032;-58
2022/06/26 07:34:23;;;;;;;5.97;5.78;;;;;;;-143.83;100.00;62900.06;5035016;28;20033;-59
2022/06/26 07:36:50;;;;;;;5.80;5.60;;;;;;;-143.83;100.00;62900.06;5033858;28;20096;-58
2022/06/26 07:39:19;;;;;;;6.03;5.82;;;;;;;-143.83;100.00;62900.06;5032882;28;20537;-59
2022/06/26 07:41:46;;;;;;;5.70;5.50;;;;;;;-143.83;100.00;62900.06;5034759;28;20104;-59
2022/06/26 07:44:12;;;;;;;6.05;5.85;;;;;;;-143.83;100.00;62900.06;5034451;28;20112;-60
2022/06/26 07:46:38;;;;;;;5.82;5.63;;;;;;;-143.83;100.00;62900.06;5034426;28;20113;-59
2022/06/26 07:49:06;;;;;;;5.90;5.70;;;;;;;-143.83;100.00;62900.06;5033429;28;20025;-60
2022/06/26 07:51:32;;;;;;;5.72;5.53;;;;;;;-143.83;100.00;62900.06;5030332;28;20018;-60
2022/06/26 07:53:58;;;;;;;5.70;5.50;;;;;;;-143.83;100.00;62900.06;5025453;28;20033;-59
2022/06/26 07:56:25;;;;;;;5.93;5.72;;;;;;;-143.83;100.00;62900.06;5033088;28;20025;-60
2022/06/26 07:58:54;;;;;;;5.80;5.60;;;;;;;-143.83;100.00;62900.06;5028693;28;20071;-61
2022/06/26 08:01:20;;;;;;;5.63;5.43;;;;;;;-143.83;100.00;62900.06;5034492;28;20144;-60
2022/06/26 08:03:46;;;;;;;5.53;5.32;;;;;;;-143.83;100.00;62900.06;5034581;28;20109;-60
2022/06/26 08:06:12;;;;;;;5.90;5.70;;;;;;;-143.83;100.00;62900.06;5031621;28;20026;-60
2022/06/26 08:08:38;;;;;;;5.90;5.70;;;;;;;-143.83;100.00;62900.06;5034316;28;20568;-60
2022/06/26 08:11:04;;;;;;;5.80;5.60;;;;;;;-143.83;100.00;62900.06;5020192;28;20030;-60
2022/06/26 08:13:30;;;;;;;5.50;5.30;;;;;;;-143.83;100.00;62900.06;5033037;28;20128;-60
2022/06/26 08:15:56;;;;;;;5.68;5.47;;;;;;;-143.83;100.00;62900.06;5034273;28;20433;-60
2022/06/26 08:18:21;;;;;;;5.70;5.50;;;;;;;-143.83;100.00;62900.06;5034289;28;20017;-60
2022/06/26 08:20:47;;;;;;;5.60;5.40;;;;;;;-143.83;100.00;62900.06;5020477;28;20436;-60
2022/06/26 08:23:12;;;;;;;5.70;5.50;;;;;;;-143.83;100.00;62900.06;5033368;28;20044;-59
2022/06/26 08:25:38;;;;;;;5.78;5.57;;;;;;;-143.83;100.00;62900.06;5025506;28;20033;-59
2022/06/26 08:28:04;;;;;;;5.60;5.40;;;;;;;-143.83;100.00;62900.06;5030822;28;20030;-60
2022/06/26 08:30:29;;;;;;;5.57;5.38;;;;;;;-143.83;100.00;62900.06;5034253;28;20080;-59
2022/06/26 08:32:58;;;;;;;5.60;5.40;;;;;;;-143.83;100.00;62900.06;5033666;28;20397;-59
2022/06/26 08:35:25;;;;;;;5.57;5.38;;;;;;;-143.83;100.00;62900.06;5033734;28;20511;-59
2022/06/26 08:37:50;;;;;;;5.60;5.40;;;;;;;-143.83;100.00;62900.06;5033615;28;20028;-59
2022/06/26 08:40:16;;;;;;;5.80;5.60;;;;;;;-143.83;100.00;62900.06;5032997;28;20030;-60
2022/06/26 08:42:42;;;;;;;5.80;5.60;;;;;;;-143.83;100.00;62900.06;5034667;28;20023;-59
2022/06/26 08:45:08;;;;;;;5.90;5.70;;;;;;;-143.83;100.00;62900.06;5031424;28;20420;-61
2022/06/26 08:47:38;;;;;;;5.72;5.53;;;;;;;-143.83;100.00;62900.06;5033451;28;20477;-60
2022/06/26 08:50:04;;;;;;;5.70;5.50;;;;;;;-143.83;100.00;62900.06;5033819;28;20379;-60
2022/06/26 08:52:30;;;;;;;5.60;5.40;;;;;;;-143.83;100.00;62900.06;5033483;28;20033;-59
2022/06/26 08:54:56;;;;;;;5.65;5.45;;;;;;;-143.83;100.00;62900.06;5033422;28;20021;-60
2022/06/26 08:57:23;;;;;;;5.50;5.30;;;;;;;-143.83;100.00;62900.06;5032526;28;20022;-60
2022/06/26 08:59:49;;;;;;;5.47;5.28;;;;;;;-143.83;100.00;62900.06;5033368;28;20108;-60
2022/06/26 09:02:14;;;;;;;5.40;5.20;;;;;;;-143.83;100.00;62900.06;5031452;28;20615;-60
2022/06/26 09:04:40;;;;;;;5.55;5.35;;;;;;;-143.83;100.00;62900.06;5033394;28;20037;-59
2022/06/26 09:07:07;;;;;;;5.60;5.40;;;;;;;-143.83;100.00;62900.06;5032875;28;20405;-60
2022/06/26 09:09:32;;;;;;;5.57;5.38;;;;;;;-143.83;100.00;62900.06;5031211;28;20044;-60
2022/06/26 09:12:01;;;;;;;5.50;5.30;;;;;;;-143.83;100.00;62900.06;5021494;28;20045;-59
2022/06/26 09:14:29;;;;;;;5.63;5.43;;;;;;;-143.83;100.00;62900.06;5032261;28;20124;-59
2022/06/26 09:16:56;;;;;;;5.30;5.10;;;;;;;-143.83;100.00;62900.06;5033011;28;20026;-59
2022/06/26 09:19:24;;;;;;;5.55;5.35;;;;;;;-143.83;100.00;62900.06;5030831;28;20514;-59
2022/06/26 09:21:52;;;;;;;5.53;5.32;;;;;;;-143.83;100.00;62900.06;5032806;28;20043;-60
2022/06/26 09:24:19;;;;;;;5.47;5.28;;;;;;;-143.83;100.00;62900.06;5032745;28;20519;-59
2022/06/26 09:26:59;;;;;;;5.40;5.20;;;;;;;-143.83;100.00;62900.06;5032665;28;20036;-60
2022/06/26 09:29:25;;;;;;;5.55;5.35;;;;;;;-143.83;100.00;62900.06;5032651;28;20388;-59
2022/06/26 09:31:50;;;;;;;5.57;5.38;;;;;;;-143.83;100.00;62900.06;5031536;28;20133;-59
2022/06/26 09:34:24;;;;;;;5.50;5.30;;;;;;;-143.83;100.00;62900.06;5032643;28;20021;-61
2022/06/26 09:37:01;;;;;;;5.40;5.20;;;;;;;-143.83;100.00;62900.06;5016694;28;20025;-60
2022/06/26 09:39:29;;;;;;;5.40;5.20;;;;;;;-143.83;100.00;62900.06;5032416;28;20029;-59
2022/06/26 09:41:55;;;;;;;5.60;5.40;;;;;;;-143.83;100.00;62900.06;5030161;28;20432;-59
2022/06/26 09:44:21;;;;;;;5.40;5.20;;;;;;;-143.83;100.00;62900.06;5032079;28;20021;-59
2022/06/26 09:46:48;;;;;;;5.47;5.28;;;;;;;-143.83;100.00;62900.06;5031548;28;20038;-59
2022/06/26 09:49:14;;;;;;;5.30;5.10;;;;;;;-143.83;100.00;62900.06;5032000;28;20036;-60
2022/06/26 09:51:40;;;;;;;5.32;5.13;;;;;;;-143.83;100.00;62900.06;5019244;28;20053;-59
2022/06/26 09:54:06;;;;;;;5.45;5.25;;;;;;;-143.83;100.00;62900.06;5032392;28;20393;-59
2022/06/26 09:56:32;;;;;;;5.35;5.15;;;;;;;-143.83;100.00;62900.06;5032314;28;20108;-59
2022/06/26 09:58:59;;;;;;;5.32;5.13;;;;;;;-143.83;100.00;62900.06;5032237;28;20029;-60
2022/06/26 10:06:58;;;;;;;5.38;5.18;;;;;;;-143.83;100.00;62900.06;5031997;28;20036;-59
2022/06/26 10:09:26;;;;;;;5.28;5.07;;;;;;;-143.83;100.00;62900.06;5030279;28;20039;-60
2022/06/26 10:11:53;;;;;;;5.25;5.05;;;;;;;-143.83;100.00;62900.06;5023996;28;20025;-60
2022/06/26 10:14:23;;;;;;;5.35;5.15;;;;;;;-143.83;100.00;62900.06;5017512;28;20112;-60
2022/06/26 10:17:22;;;;;;;5.45;5.25;;;;;;;-143.83;100.00;62900.06;5031963;28;20021;-61
2022/06/26 10:20:02;;;;;;;5.40;5.20;;;;;;;-143.83;100.00;62900.06;5031957;28;20501;-61
2022/06/26 10:22:40;;;;;;;5.50;5.30;;;;;;;-143.83;100.00;62900.06;5030927;28;20052;-61
2022/06/26 10:25:06;;;;;;;5.38;5.18;;;;;;;-143.83;100.00;62900.06;5031048;28;20389;-61
2022/06/26 10:27:34;;;;;;;5.30;5.10;;;;;;;-143.83;100.00;62900.06;5031590;28;20032;-59
2022/06/26 10:30:21;;;;;;;5.60;5.40;;;;;;;-143.83;100.00;62900.06;5031671;28;20389;-60
2022/06/26 10:33:07;;;;;;;5.38;5.18;;;;;;;-143.83;100.00;62900.06;5030569;28;20040;-60
2022/06/26 10:35:45;;;;;;;5.47;5.28;;;;;;;-143.83;100.00;62900.06;5031469;28;20033;-59
2022/06/26 10:38:25;;;;;;;5.40;5.20;;;;;;;-143.83;100.00;62900.06;5030664;28;20034;-61
2022/06/26 10:44:16;;;;;;;5.40;5.20;;;;;;;-143.83;100.00;62900.06;5031075;28;20064;-60
2022/06/26 10:46:45;;;;;;;5.38;5.18;;;;;;;-143.83;100.00;62900.06;5028115;28;20116;-60
2022/06/26 10:49:11;;;;;;;5.28;5.07;;;;;;;-143.83;100.00;62900.06;5036781;28;20429;-61
2022/06/26 10:51:44;;;;;;;5.38;5.18;;;;;;;-143.83;100.00;62900.06;5023089;28;20033;-60
2022/06/26 10:54:20;;;;;;;5.32;5.13;;;;;;;-143.83;100.00;62900.06;5031618;28;20045;-59
2022/06/26 10:56:53;;;;;;;5.40;5.20;;;;;;;-143.83;100.00;62900.06;5028074;28;20949;-60
2022/06/26 10:59:21;;;;;;;5.53;5.32;;;;;;;-143.83;100.00;62900.06;5029902;28;20489;-60
2022/06/26 11:01:47;;;;;;;5.50;5.30;;;;;;;-143.83;100.00;62900.06;5031716;28;20022;-61
2022/06/26 11:04:12;;;;;;;5.40;5.20;;;;;;;-143.83;100.00;62900.06;5023157;28;20394;-61
2022/06/26 11:06:42;;;;;;;5.47;5.28;;;;;;;-143.83;100.00;62900.06;5029826;28;20029;-60
2022/06/26 11:09:09;;;;;;;5.50;5.30;;;;;;;-143.83;100.00;62900.06;5031767;28;20037;-59
2022/06/26 11:11:34;;;;;;;5.32;5.13;;;;;;;-143.83;100.00;62900.06;5030438;28;20084;-60
2022/06/26 11:14:07;;;;;;;5.30;5.10;;;;;;;-143.83;100.00;62900.06;5031396;28;20396;-61
2022/06/26 11:16:42;;;;;;;5.43;5.22;;;;;;;-143.83;100.00;62900.06;5030797;28;20052;-60
2022/06/26 11:19:29;;;;;;;5.50;5.30;;;;;;;-143.83;100.00;62900.06;5031754;28;20179;-61
2022/06/26 11:22:12;;;;;;;5.40;5.20;;;;;;;-143.83;100.00;62900.06;5029594;28;20041;-60
2022/06/26 11:24:55;;;;;;;5.50;5.30;;;;;;;-143.83;100.00;62900.06;5028311;28;20041;-60